createdAt,value
2023-02-01T00:01:08.938Z,100.00
2023-02-01T00:03:36.010Z,100.00
2023-02-01T00:06:03.162Z,100.00
2023-02-01T00:08:30.243Z,100.00
2023-02-01T00:11:05.903Z,100.00
2023-02-01T00:13:33.964Z,100.00
2023-02-01T00:16:17.475Z,100.00
2023-02-01T00:18:45.318Z,100.00
2023-02-01T00:21:13.424Z,100.00
2023-02-01T00:23:40.188Z,100.00
2023-02-01T00:26:13.971Z,100.00
2023-02-01T00:28:40.603Z,100.00
2023-02-01T00:31:07.368Z,100.00
2023-02-01T00:33:34.853Z,100.00
2023-02-01T00:36:03.675Z,100.00
2023-02-01T00:38:31.333Z,100.00
2023-02-01T00:41:05.919Z,100.00
2023-02-01T00:43:33.112Z,100.00
2023-02-01T00:45:59.948Z,100.00
2023-02-01T00:48:27.015Z,100.00
2023-02-01T00:50:53.727Z,100.00
2023-02-01T00:53:20.530Z,100.00
2023-02-01T00:55:50.054Z,100.00
2023-02-01T00:58:16.651Z,100.00
2023-02-01T01:00:43.337Z,100.00
2023-02-01T01:03:19.005Z,100.00
2023-02-01T01:05:46.780Z,100.00
2023-02-01T01:08:14.348Z,100.00
2023-02-01T01:10:41.336Z,100.00
2023-02-01T01:13:08.281Z,100.00
2023-02-01T01:15:39.627Z,100.00
2023-02-01T01:18:07.446Z,100.00
2023-02-01T01:20:39.034Z,100.00
2023-02-01T01:23:06.732Z,100.00
2023-02-01T01:25:33.427Z,100.00
2023-02-01T01:28:00.013Z,100.00
2023-02-01T01:30:26.629Z,100.00
2023-02-01T01:32:53.517Z,100.00
2023-02-01T01:35:20.368Z,100.00
2023-02-01T01:37:46.902Z,100.00
2023-02-01T01:40:13.631Z,100.00
2023-02-01T01:42:44.585Z,100.00
2023-02-01T01:45:35.104Z,100.00
2023-02-01T01:48:19.705Z,100.00
2023-02-01T01:50:55.883Z,100.00
2023-02-01T01:53:29.176Z,100.00
2023-02-01T01:55:57.292Z,100.00
2023-02-01T01:58:27.198Z,100.00
2023-02-01T02:00:55.082Z,100.00
2023-02-01T02:03:31.424Z,100.00
2023-02-01T02:06:00.477Z,100.00
2023-02-01T02:08:29.850Z,100.00
2023-02-01T02:11:02.779Z,100.00
2023-02-01T02:13:38.607Z,100.00
2023-02-01T02:16:18.913Z,100.00
2023-02-01T02:19:13.013Z,100.00
2023-02-01T02:22:04.385Z,100.00
2023-02-01T02:25:09.908Z,100.00
2023-02-01T02:27:58.142Z,100.00
2023-02-01T02:30:33.650Z,100.00
2023-02-01T02:33:29.463Z,100.00
2023-02-01T02:36:01.733Z,100.00
2023-02-01T02:38:35.994Z,100.00
2023-02-01T02:41:47.530Z,100.00
2023-02-01T02:44:43.279Z,100.00
2023-02-01T02:47:27.182Z,100.00
2023-02-01T02:50:22.229Z,100.00
2023-02-01T02:53:18.710Z,100.00
2023-02-01T02:55:46.289Z,100.00
2023-02-01T02:58:33.727Z,100.00
2023-02-01T03:01:19.358Z,100.00
2023-02-01T03:04:04.726Z,100.00
2023-02-01T03:06:34.270Z,100.00
2023-02-01T03:09:05.484Z,100.00
2023-02-01T03:11:52.273Z,100.00
2023-02-01T03:14:25.970Z,100.00
2023-02-01T03:17:00.867Z,100.00
2023-02-01T03:19:44.680Z,100.00
2023-02-01T03:22:15.907Z,100.00
2023-02-01T03:24:56.155Z,100.00
2023-02-01T03:27:31.577Z,100.00
2023-02-01T03:30:06.689Z,100.00
2023-02-01T03:32:56.014Z,100.00
2023-02-01T03:35:51.938Z,100.00
2023-02-01T03:38:38.897Z,100.00
2023-02-01T03:41:39.758Z,100.00
2023-02-01T03:44:27.164Z,100.00
2023-02-01T03:46:59.112Z,100.00
2023-02-01T03:49:43.109Z,100.00
2023-02-01T03:52:18.276Z,100.00
2023-02-01T03:54:47.138Z,100.00
2023-02-01T03:57:17.680Z,100.00
2023-02-01T03:59:46.579Z,100.00
2023-02-01T04:02:13.351Z,100.00
2023-02-01T04:04:40.058Z,100.00
2023-02-01T04:07:06.551Z,100.00
2023-02-01T04:09:33.206Z,100.00
2023-02-01T04:11:59.903Z,100.00
2023-02-01T04:14:26.427Z,100.00
2023-02-01T04:16:53.068Z,100.00
2023-02-01T04:19:19.610Z,100.00
2023-02-01T04:21:46.491Z,100.00
2023-02-01T04:24:13.289Z,100.00
2023-02-01T04:26:39.896Z,100.00
2023-02-01T04:29:06.509Z,100.00
2023-02-01T04:31:33.204Z,100.00
2023-02-01T04:33:59.935Z,100.00
2023-02-01T04:36:26.511Z,100.00
2023-02-01T04:38:53.345Z,100.00
2023-02-01T04:41:21.485Z,100.00
2023-02-01T04:43:48.925Z,100.00
2023-02-01T04:46:15.930Z,100.00
2023-02-01T04:48:43.299Z,100.00
2023-02-01T04:51:10.962Z,100.00
2023-02-01T04:53:37.566Z,100.00
2023-02-01T04:56:04.332Z,100.00
2023-02-01T04:58:31.066Z,100.00
2023-02-01T05:00:57.717Z,100.00
2023-02-01T05:03:24.344Z,100.00
2023-02-01T05:05:51.104Z,100.00
2023-02-01T05:08:17.662Z,100.00
2023-02-01T05:10:46.192Z,100.00
2023-02-01T05:13:31.329Z,100.00
2023-02-01T05:15:57.959Z,100.00
2023-02-01T05:18:24.604Z,100.00
2023-02-01T05:20:51.297Z,100.00
2023-02-01T05:23:17.805Z,100.00
2023-02-01T05:25:44.463Z,100.00
2023-02-01T05:28:11.151Z,100.00
2023-02-01T05:30:39.307Z,100.00
2023-02-01T05:33:07.047Z,100.00
2023-02-01T05:35:33.700Z,100.00
2023-02-01T05:38:00.206Z,100.00
2023-02-01T05:40:26.829Z,100.00
2023-02-01T05:42:53.363Z,100.00
2023-02-01T05:45:20.032Z,100.00
2023-02-01T05:47:46.690Z,100.00
2023-02-01T05:50:13.408Z,100.00
2023-02-01T05:52:40.007Z,100.00
2023-02-01T05:55:07.123Z,100.00
2023-02-01T05:57:33.832Z,100.00
2023-02-01T06:00:00.804Z,100.00
2023-02-01T06:02:27.747Z,100.00
2023-02-01T06:04:54.361Z,100.00
2023-02-01T06:07:20.981Z,100.00
2023-02-01T06:09:47.492Z,100.00
2023-02-01T06:12:14.868Z,100.00
2023-02-01T06:14:41.992Z,100.00
2023-02-01T06:17:08.703Z,100.00
2023-02-01T06:19:35.303Z,100.00
2023-02-01T06:22:02.048Z,100.00
2023-02-01T06:28:16.336Z,100.00
2023-02-01T06:30:46.932Z,100.00
2023-02-01T06:33:16.100Z,100.00
2023-02-01T06:35:45.297Z,100.00
2023-02-01T06:38:12.646Z,100.00
2023-02-01T06:40:40.327Z,100.00
2023-02-01T06:43:07.083Z,100.00
2023-02-01T06:45:33.795Z,100.00
2023-02-01T06:48:01.562Z,100.00
2023-02-01T06:50:28.821Z,100.00
2023-02-01T06:52:56.096Z,100.00
2023-02-01T06:55:22.717Z,100.00
2023-02-01T06:57:49.262Z,100.00
2023-02-01T07:00:16.206Z,100.00
2023-02-01T07:02:42.740Z,100.00
2023-02-01T07:05:09.780Z,100.00
2023-02-01T07:07:36.490Z,100.00
2023-02-01T07:10:03.645Z,100.00
2023-02-01T07:12:30.301Z,100.00
2023-02-01T07:14:57.695Z,100.00
2023-02-01T07:17:24.353Z,100.00
2023-02-01T07:19:51.003Z,100.00
2023-02-01T07:22:18.250Z,100.00
2023-02-01T07:24:45.059Z,100.00
2023-02-01T07:27:11.689Z,100.00
2023-02-01T07:29:38.229Z,100.00
2023-02-01T07:32:04.982Z,100.00
2023-02-01T07:34:31.922Z,100.00
2023-02-01T07:36:58.501Z,100.00
2023-02-01T07:39:25.012Z,100.00
2023-02-01T07:41:51.612Z,100.00
2023-02-01T07:44:23.589Z,100.00
2023-02-01T07:46:50.949Z,100.00
2023-02-01T07:49:18.700Z,100.00
2023-02-01T07:51:45.332Z,100.00
2023-02-01T07:54:11.955Z,100.00
2023-02-01T07:56:38.545Z,100.00
2023-02-01T07:59:05.373Z,100.00
2023-02-01T08:01:32.104Z,100.00
2023-02-01T08:04:00.970Z,100.00
2023-02-01T08:06:29.420Z,100.00
2023-02-01T08:08:56.260Z,100.00
2023-02-01T08:11:24.753Z,100.00
2023-02-01T08:13:52.321Z,100.00
2023-02-01T08:16:21.048Z,100.00
2023-02-01T08:18:47.930Z,100.00
2023-02-01T08:21:21.106Z,100.00
2023-02-01T08:23:47.737Z,100.00
2023-02-01T08:26:21.744Z,100.00
2023-02-01T08:28:54.754Z,100.00
2023-02-01T08:31:23.959Z,100.00
2023-02-01T08:33:53.087Z,100.00
2023-02-01T08:36:20.473Z,100.00
2023-02-01T08:38:47.382Z,100.00
2023-02-01T08:41:16.675Z,100.00
2023-02-01T08:43:44.245Z,100.00
2023-02-01T08:46:11.490Z,100.00
2023-02-01T08:48:38.340Z,100.00
2023-02-01T08:51:11.814Z,100.00
2023-02-01T08:53:41.195Z,100.00
2023-02-01T08:56:08.890Z,100.00
2023-02-01T08:58:36.007Z,100.00
2023-02-01T09:01:07.336Z,100.00
2023-02-01T09:03:34.578Z,100.00
2023-02-01T09:06:06.374Z,100.00
2023-02-01T09:08:33.645Z,100.00
2023-02-01T09:11:05.534Z,100.00
2023-02-01T09:13:32.345Z,100.00
2023-02-01T09:16:00.816Z,100.00
2023-02-01T09:18:28.106Z,100.00
2023-02-01T09:20:54.778Z,100.00
2023-02-01T09:23:21.463Z,100.00
2023-02-01T09:25:51.161Z,100.00
2023-02-01T09:28:18.722Z,100.00
2023-02-01T09:30:45.346Z,100.00
2023-02-01T09:33:11.975Z,100.00
2023-02-01T09:35:39.168Z,100.00
2023-02-01T09:38:06.236Z,100.00
2023-02-01T09:40:35.918Z,100.00
2023-02-01T09:43:18.969Z,100.00
2023-02-01T09:46:19.858Z,100.00
2023-02-01T09:48:47.946Z,100.00
2023-02-01T09:51:24.489Z,100.00
2023-02-01T09:54:19.747Z,100.00
2023-02-01T09:56:53.448Z,100.00
2023-02-01T09:59:41.500Z,100.00
2023-02-01T10:02:22.627Z,100.00
2023-02-01T10:04:49.948Z,100.00
2023-02-01T10:07:35.186Z,100.00
2023-02-01T10:10:16.875Z,100.00
2023-02-01T10:13:04.453Z,100.00
2023-02-01T10:15:58.264Z,100.00
2023-02-01T10:18:41.893Z,100.00
2023-02-01T10:21:11.026Z,100.00
2023-02-01T10:24:21.224Z,100.00
2023-02-01T10:26:59.296Z,100.00
2023-02-01T10:29:30.962Z,100.00
2023-02-01T10:31:58.822Z,100.00
2023-02-01T10:34:35.315Z,100.00
2023-02-01T10:37:23.505Z,100.00
2023-02-01T10:39:53.442Z,100.00
2023-02-01T10:42:22.704Z,100.00
2023-02-01T10:44:49.466Z,100.00
2023-02-01T10:47:19.053Z,100.00
2023-02-01T10:49:58.526Z,100.00
2023-02-01T10:52:34.765Z,100.00
2023-02-01T10:55:46.589Z,100.00
2023-02-01T10:58:33.823Z,100.00
2023-02-01T11:01:07.115Z,100.00
2023-02-01T11:03:41.439Z,100.00
2023-02-01T11:06:33.931Z,100.00
2023-02-01T11:09:09.507Z,100.00
2023-02-01T11:11:48.022Z,100.00
2023-02-01T11:14:20.232Z,100.00
2023-02-01T11:16:55.014Z,98.90
2023-02-01T11:19:22.143Z,100.00
2023-02-01T11:21:57.274Z,100.00
2023-02-01T11:24:29.796Z,99.70
2023-02-01T11:27:04.668Z,100.00
2023-02-01T11:29:45.553Z,99.73
2023-02-01T11:32:14.909Z,99.78
2023-02-01T11:34:47.320Z,100.00
2023-02-01T11:37:28.054Z,98.96
2023-02-01T11:40:00.933Z,98.96
2023-02-01T11:42:29.678Z,99.52
2023-02-01T11:45:26.238Z,99.10
2023-02-01T11:47:54.790Z,97.58
2023-02-01T11:50:56.906Z,98.25
2023-02-01T11:53:41.532Z,98.08
2023-02-01T11:56:23.676Z,98.63
2023-02-01T11:58:50.190Z,98.10
2023-02-01T12:01:22.802Z,97.84
2023-02-01T12:04:11.212Z,96.86
2023-02-01T12:06:55.164Z,98.34
2023-02-01T12:09:27.766Z,97.73
2023-02-01T12:12:13.441Z,97.38
2023-02-01T12:14:54.091Z,97.71
2023-02-01T12:17:26.851Z,97.88
2023-02-01T12:20:05.865Z,97.81
2023-02-01T12:22:39.485Z,97.39
2023-02-01T12:25:36.983Z,97.27
2023-02-01T12:28:35.986Z,95.58
2023-02-01T12:31:14.746Z,97.42
2023-02-01T12:34:32.307Z,95.39
2023-02-01T12:37:10.479Z,95.02
2023-02-01T12:39:45.453Z,94.69
2023-02-01T12:42:21.980Z,92.85
2023-02-01T12:44:57.395Z,91.15
2023-02-01T12:47:48.076Z,90.76
2023-02-01T12:50:45.078Z,89.73
2023-02-01T12:53:25.218Z,87.99
2023-02-01T12:55:58.778Z,88.03
2023-02-01T12:58:42.292Z,88.69
2023-02-01T13:01:59.881Z,90.84
2023-02-01T13:04:33.035Z,88.03
2023-02-01T13:07:22.146Z,88.92
2023-02-01T13:09:54.605Z,89.26
2023-02-01T13:12:37.276Z,87.02
2023-02-01T13:15:29.782Z,88.32
2023-02-01T13:18:01.162Z,85.52
2023-02-01T13:20:42.353Z,87.68
2023-02-01T13:23:28.909Z,87.09
2023-02-01T13:25:56.366Z,88.12
2023-02-01T13:28:31.179Z,87.71
2023-02-01T13:31:12.060Z,88.08
2023-02-01T13:33:54.735Z,86.80
2023-02-01T13:36:29.096Z,86.82
2023-02-01T13:39:14.374Z,87.93
2023-02-01T13:41:55.542Z,86.30
2023-02-01T13:44:47.902Z,87.18
2023-02-01T13:47:24.636Z,87.71
2023-02-01T13:49:53.027Z,86.38
2023-02-01T13:52:46.592Z,86.86
2023-02-01T13:55:27.262Z,86.88
2023-02-01T13:58:04.525Z,85.80
2023-02-01T14:00:37.052Z,87.05
2023-02-01T14:03:13.055Z,86.52
2023-02-01T14:05:39.567Z,86.73
2023-02-01T14:08:08.917Z,87.11
2023-02-01T14:10:56.991Z,86.72
2023-02-01T14:13:40.233Z,87.65
2023-02-01T14:16:07.303Z,84.72
2023-02-01T14:18:42.219Z,85.99
2023-02-01T14:21:26.777Z,83.21
2023-02-01T14:24:01.273Z,83.92
2023-02-01T14:26:42.986Z,84.28
2023-02-01T14:29:22.070Z,84.30
2023-02-01T14:32:17.216Z,85.67
2023-02-01T14:34:55.466Z,86.36
2023-02-01T14:37:22.910Z,86.23
2023-02-01T14:39:56.045Z,85.81
2023-02-01T14:42:25.824Z,85.86
2023-02-01T14:44:58.871Z,84.67
2023-02-01T14:47:28.458Z,84.67
2023-02-01T14:49:54.975Z,85.40
2023-02-01T14:52:24.860Z,84.43
2023-02-01T14:54:56.533Z,85.18
2023-02-01T14:57:28.323Z,85.67
2023-02-01T15:00:05.898Z,86.85
2023-02-01T15:02:36.113Z,86.22
2023-02-01T15:05:02.792Z,84.26
2023-02-01T15:07:30.723Z,84.69
2023-02-01T15:10:00.083Z,85.47
2023-02-01T15:12:32.654Z,87.00
2023-02-01T15:15:14.318Z,86.82
2023-02-01T15:17:41.529Z,86.75
2023-02-01T15:20:22.245Z,87.14
2023-02-01T15:22:59.870Z,87.00
2023-02-01T15:25:33.305Z,88.50
2023-02-01T15:28:00.018Z,86.73
2023-02-01T15:30:30.287Z,87.73
2023-02-01T15:33:05.848Z,87.68
2023-02-01T15:35:43.487Z,89.17
2023-02-01T15:38:19.791Z,88.79
2023-02-01T15:41:20.099Z,88.00
2023-02-01T15:43:55.569Z,88.12
2023-02-01T15:46:36.618Z,88.17
2023-02-01T15:49:03.714Z,89.03
2023-02-01T15:51:33.683Z,89.02
2023-02-01T15:54:09.348Z,89.06
2023-02-01T15:56:42.157Z,89.10
2023-02-01T15:59:29.464Z,90.03
2023-02-01T16:01:56.786Z,89.86
2023-02-01T16:04:26.692Z,89.41
2023-02-01T16:06:58.999Z,90.35
2023-02-01T16:09:38.658Z,91.06
2023-02-01T16:12:47.794Z,90.95
2023-02-01T16:15:15.298Z,91.29
2023-02-01T16:17:41.948Z,92.06
2023-02-01T16:20:10.078Z,93.30
2023-02-01T16:22:36.798Z,93.34
2023-02-01T16:25:03.577Z,94.77
2023-02-01T16:27:30.303Z,96.15
2023-02-01T16:29:57.778Z,95.09
2023-02-01T16:32:24.873Z,96.81
2023-02-01T16:34:51.494Z,96.79
2023-02-01T16:37:22.328Z,97.54
2023-02-01T16:39:48.960Z,98.12
2023-02-01T16:42:17.203Z,98.12
2023-02-01T16:44:44.196Z,98.27
2023-02-01T16:47:23.606Z,98.92
2023-02-01T16:49:50.717Z,99.64
2023-02-01T16:52:20.689Z,100.00
2023-02-01T16:54:48.295Z,100.00
2023-02-01T16:57:18.324Z,100.00
2023-02-01T16:59:48.422Z,100.00
2023-02-01T17:02:20.335Z,100.00
2023-02-01T17:04:48.860Z,100.00
2023-02-01T17:07:19.835Z,100.00
2023-02-01T17:09:47.692Z,100.00
2023-02-01T17:12:30.582Z,100.00
2023-02-01T17:14:58.887Z,100.00
2023-02-01T17:17:38.782Z,100.00
2023-02-01T17:20:07.238Z,100.00
2023-02-01T17:22:34.101Z,100.00
2023-02-01T17:25:00.882Z,100.00
2023-02-01T17:27:27.694Z,100.00
2023-02-01T17:29:57.198Z,100.00
2023-02-01T17:32:26.401Z,100.00
2023-02-01T17:34:53.164Z,100.00
2023-02-01T17:37:27.254Z,100.00
2023-02-01T17:39:57.255Z,100.00
2023-02-01T17:42:25.904Z,100.00
2023-02-01T17:44:59.033Z,100.00
2023-02-01T17:47:25.880Z,100.00
2023-02-01T17:49:56.551Z,100.00
2023-02-01T17:52:25.126Z,100.00
2023-02-01T17:54:54.135Z,100.00
2023-02-01T17:57:21.393Z,100.00
2023-02-01T17:59:47.972Z,100.00
2023-02-01T18:02:20.712Z,100.00
2023-02-01T18:04:47.383Z,100.00
2023-02-01T18:07:13.998Z,100.00
2023-02-01T18:09:41.515Z,99.54
2023-02-01T18:12:18.653Z,100.00
2023-02-01T18:14:45.198Z,100.00
2023-02-01T18:17:12.948Z,99.87
2023-02-01T18:19:39.737Z,100.00
2023-02-01T18:22:07.175Z,99.93
2023-02-01T18:24:34.959Z,99.21
2023-02-01T18:27:01.726Z,100.00
2023-02-01T18:29:28.363Z,99.69
2023-02-01T18:31:55.503Z,99.74
2023-02-01T18:34:23.833Z,99.54
2023-02-01T18:36:51.081Z,100.00
2023-02-01T18:39:18.606Z,99.28
2023-02-01T18:41:48.041Z,100.00
2023-02-01T18:44:16.168Z,100.00
2023-02-01T18:46:43.612Z,100.00
2023-02-01T18:49:12.254Z,100.00
2023-02-01T18:51:38.940Z,100.00
2023-02-01T18:54:06.111Z,100.00
2023-02-01T18:56:32.689Z,100.00
2023-02-01T18:59:00.178Z,100.00
2023-02-01T19:01:26.894Z,100.00
2023-02-01T19:03:57.896Z,100.00
2023-02-01T19:06:34.310Z,100.00
2023-02-01T19:09:00.839Z,100.00
2023-02-01T19:11:27.525Z,100.00
2023-02-01T19:13:55.464Z,100.00
2023-02-01T19:16:22.083Z,100.00
2023-02-01T19:18:52.433Z,100.00
2023-02-01T19:21:19.139Z,100.00
2023-02-01T19:23:45.901Z,100.00
2023-02-01T19:26:13.966Z,100.00
2023-02-01T19:28:41.174Z,100.00
2023-02-01T19:31:09.065Z,100.00
2023-02-01T19:33:36.636Z,100.00
2023-02-01T19:36:06.068Z,100.00
2023-02-01T19:38:33.896Z,100.00
2023-02-01T19:41:00.703Z,100.00
2023-02-01T19:43:27.644Z,100.00
2023-02-01T19:45:54.762Z,100.00
2023-02-01T19:48:21.390Z,100.00
2023-02-01T19:50:48.025Z,100.00
2023-02-01T19:53:14.741Z,100.00
2023-02-01T19:55:45.855Z,100.00
2023-02-01T19:58:12.518Z,100.00
2023-02-01T20:00:38.197Z,100.00
2023-02-01T20:03:05.001Z,100.00
2023-02-01T20:05:31.715Z,100.00
2023-02-01T20:07:58.327Z,100.00
2023-02-01T20:10:24.948Z,100.00
2023-02-01T20:12:51.480Z,100.00
2023-02-01T20:15:18.294Z,100.00
2023-02-01T20:17:44.869Z,100.00
2023-02-01T20:20:11.823Z,100.00
2023-02-01T20:22:38.366Z,100.00
2023-02-01T20:25:05.593Z,100.00
2023-02-01T20:27:33.208Z,100.00
2023-02-01T20:29:59.769Z,100.00
2023-02-01T20:32:26.335Z,100.00
2023-02-01T20:34:54.280Z,100.00
2023-02-01T20:37:21.796Z,100.00
2023-02-01T20:39:48.405Z,100.00
2023-02-01T20:42:15.175Z,100.00
2023-02-01T20:44:41.829Z,100.00
2023-02-01T20:47:08.484Z,100.00
2023-02-01T20:49:35.427Z,100.00
2023-02-01T20:52:02.042Z,100.00
2023-02-01T20:54:28.642Z,100.00
2023-02-01T20:56:55.254Z,100.00
2023-02-01T20:59:21.844Z,100.00
2023-02-01T21:01:54.265Z,100.00
2023-02-01T21:04:23.625Z,100.00
2023-02-01T21:06:50.195Z,100.00
2023-02-01T21:09:17.179Z,100.00
2023-02-01T21:11:46.831Z,100.00
2023-02-01T21:14:13.447Z,100.00
2023-02-01T21:16:40.064Z,100.00
2023-02-01T21:19:06.897Z,100.00
2023-02-01T21:21:33.440Z,100.00
2023-02-01T21:24:00.602Z,100.00
2023-02-01T21:26:28.259Z,100.00
2023-02-01T21:28:56.335Z,100.00
2023-02-01T21:31:25.852Z,100.00
2023-02-01T21:33:52.999Z,100.00
2023-02-01T21:36:19.830Z,100.00
2023-02-01T21:38:51.546Z,100.00
2023-02-01T21:41:41.847Z,100.00
2023-02-01T21:44:09.114Z,100.00
2023-02-01T21:46:35.777Z,100.00
2023-02-01T21:49:05.039Z,100.00
2023-02-01T21:51:35.226Z,100.00
2023-02-01T21:54:02.100Z,100.00
2023-02-01T21:56:28.802Z,100.00
2023-02-01T21:58:55.354Z,100.00
2023-02-01T22:01:22.202Z,100.00
2023-02-01T22:03:51.579Z,100.00
2023-02-01T22:06:37.068Z,100.00
2023-02-01T22:09:05.277Z,100.00
2023-02-01T22:11:32.328Z,100.00
2023-02-01T22:13:59.296Z,100.00
2023-02-01T22:16:26.004Z,100.00
2023-02-01T22:18:54.069Z,100.00
2023-02-01T22:21:22.627Z,100.00
2023-02-01T22:23:54.394Z,100.00
2023-02-01T22:26:21.771Z,100.00
2023-02-01T22:28:49.517Z,100.00
2023-02-01T22:31:16.937Z,100.00
2023-02-01T22:33:45.873Z,100.00
2023-02-01T22:36:12.894Z,100.00
2023-02-01T22:38:39.442Z,100.00
2023-02-01T22:41:06.589Z,100.00
2023-02-01T22:43:33.566Z,100.00
2023-02-01T22:46:06.635Z,100.00
2023-02-01T22:48:37.323Z,100.00
2023-02-01T22:51:05.449Z,100.00
2023-02-01T22:53:32.900Z,100.00
2023-02-01T22:56:06.904Z,100.00
2023-02-01T22:58:36.026Z,100.00
2023-02-01T23:01:13.792Z,100.00
2023-02-01T23:03:40.635Z,100.00
2023-02-01T23:06:08.625Z,100.00
2023-02-01T23:08:36.015Z,100.00
2023-02-01T23:11:06.346Z,100.00
2023-02-01T23:13:33.923Z,100.00
2023-02-01T23:16:05.543Z,100.00
2023-02-01T23:18:32.247Z,100.00
2023-02-01T23:21:07.138Z,100.00
2023-02-01T23:23:33.919Z,100.00
2023-02-01T23:26:00.932Z,100.00
2023-02-01T23:28:28.680Z,100.00
2023-02-01T23:30:55.985Z,100.00
2023-02-01T23:33:24.448Z,100.00
2023-02-01T23:36:02.030Z,100.00
2023-02-01T23:38:29.079Z,100.00
2023-02-01T23:41:00.891Z,100.00
2023-02-01T23:43:47.707Z,100.00
2023-02-01T23:46:18.348Z,100.00
2023-02-01T23:48:46.723Z,100.00
2023-02-01T23:51:14.537Z,100.00
2023-02-01T23:53:41.322Z,100.00
2023-02-01T23:56:08.395Z,100.00
2023-02-01T23:58:35.147Z,100.00
